Flight Track Log - Related Links

Times and Time Zones

All times are in EDT time to prevent confusion due to time zone crossing. See the CTL14 flight status page for this flight to view local times or setup timezone preferences in your user account.

Time Position Orientation Groundspeed Altitude Reporting Facility
EDT Latitude Longitude Course Direction KTS MPH feet Rate Location/Type
Fri 11:30:32 PM 40.5206 -88.9194 18° North 119 137 2,600  Level Chicago Center
Fri 11:31:33 PM 40.5475 -88.9078 18° North 104 120 3,600 934 Climbing Chicago Center
Fri 11:32:34 PM 40.5756 -88.8983 14° North 104 120 4,500 780 Climbing Chicago Center
Fri 11:33:36 PM 40.6072 -88.8914 North 111 128 5,200 732 Climbing Chicago Center
Fri 11:34:37 PM 40.6417 -88.8781 16° North 124 143 6,000 689 Climbing Chicago Center
Fri 11:35:38 PM 40.6756 -88.8678 13° North 126 145 6,600 590 Climbing Chicago Center
Fri 11:36:39 PM 40.7089 -88.8567 14° North 125 144 7,200 344 Climbing Chicago Center
Fri 11:37:40 PM 40.7461 -88.8467 12° North 130 150 7,300 49 Climbing Chicago Center
Fri 11:38:41 PM 40.7889 -88.8372 North 147 169 7,300 -49 Level Chicago Center
Fri 11:39:42 PM 40.8322 -88.8250 12° North 157 181 7,200  Descending Chicago Center
Fri 11:40:43 PM 40.8739 -88.8136 12° North 156 180 7,300 49 Climbing Chicago Center
Fri 11:41:44 PM 40.9247 -88.8003 11° North 156 180 7,300 -49 Level Chicago Center
Fri 11:42:45 PM 40.9672 -88.7881 12° North 157 181 7,200 -344 Descending Chicago Center
Fri 11:43:46 PM 41.0128 -88.7728 14° North 165 190 6,600 -443 Descending Chicago Center
Fri 11:44:47 PM 41.0592 -88.7586 13° North 170 196 6,300 -197 Descending Chicago Center
Fri 11:45:48 PM 41.1031 -88.7475 11° North 165 190 6,200 -49 Descending Chicago Center
Fri 11:46:49 PM 41.1444 -88.7364 11° North 157 181 6,200  Level Chicago Center
Fri 11:47:50 PM 41.1869 -88.7256 11° North 156 180 6,200  Level Chicago Center
Fri 11:48:51 PM 41.2292 -88.7144 11° North 155 178 6,200 -98 Level Chicago Center
Fri 11:49:52 PM 41.2714 -88.7019 13° North 157 181 6,000 -98 Descending Chicago Center
Fri 11:50:53 PM 41.3142 -88.6911 11° North 157 181 6,000  Level Chicago Center
Fri 11:51:54 PM 41.3561 -88.6803 11° North 156 180 6,000  Level Chicago Center
Fri 11:52:55 PM 41.4067 -88.6658 12° North 155 178 6,000 -49 Level Chicago Center
Fri 11:53:56 PM 41.4481 -88.6558 10° North 153 176 5,900 -50 Descending Chicago Center
Fri 11:54:56 PM 41.4897 -88.6444 12° North 153 176 5,900 99 Level Chicago Center
Fri 11:55:57 PM 41.5314 -88.6344 10° North 153 176 6,100 98 Climbing Chicago Center
Fri 11:56:58 PM 41.5719 -88.6225 12° North 151 174 6,100  Level Chicago Center
Fri 11:57:59 PM 41.6117 -88.5933 29° Northeast 157 181 6,100  Level Chicago Center
Fri 11:59:00 PM 41.6514 -88.5675 26° Northeast 158 182 6,100 -295 Level Chicago Center
Sat 12:00:01 AM 41.6925 -88.5389 27° Northeast 162 186 5,500 -541 Descending Chicago Center
Sat 12:01:02 AM 41.7358 -88.5094 27° Northeast 168 193 5,000 -541 Descending Chicago Center
Sat 12:02:03 AM 41.7797 -88.4794 27° Northeast 173 199 4,400 -443 Descending Chicago Center
Sat 12:03:04 AM 41.8244 -88.4511 25° Northeast 175 201 4,100 -148 Descending Chicago Center
Sat 12:04:05 AM 41.8656 -88.4208 29° Northeast 174 200 4,100 49 Level Chicago Center
Sat 12:05:06 AM 41.9064 -88.3944 26° Northeast 169 194 4,200  Climbing Chicago Center
Sat 12:06:06 AM 41.9478 -88.3669 26° Northeast 167 192 4,100 -99 Descending Chicago Center
Sat 12:07:07 AM 41.9978 -88.3319 27° Northeast 168 193 4,000 -344 Descending Chicago Center
Sat 12:08:08 AM 42.0386 -88.3008 30° Northeast 168 193 3,400 -443 Descending Chicago Center
Sat 12:09:09 AM 42.0747 -88.2425 50° Northeast 189 217 3,100 -246 Descending Chicago Center
Sat 12:10:10 AM 42.1069 -88.1950 48° Northeast 190 219 2,900 -197 Descending Chicago Center

Login

Don't have an account? Register now (free) for customized features, flight alerts, and more!